createdAt,value
2018-02-21T00:00:27.947Z,65.21
2018-02-21T00:01:27.972Z,65.2
2018-02-21T00:02:27.961Z,65.18
2018-02-21T00:03:27.990Z,65.03
2018-02-21T00:04:28.012Z,64.97
2018-02-21T00:05:28.000Z,64.58
2018-02-21T00:06:27.975Z,64.77
2018-02-21T00:07:27.982Z,64.91
2018-02-21T00:08:27.981Z,65.33
2018-02-21T00:09:27.984Z,65.39
2018-02-21T00:10:28.009Z,65.5
2018-02-21T00:11:28.433Z,65.58
2018-02-21T00:12:27.994Z,65.73
2018-02-21T00:13:28.027Z,65.94
2018-02-21T00:14:28.004Z,65.62
2018-02-21T00:15:28.004Z,65.69
2018-02-21T00:16:28.025Z,65.77
2018-02-21T00:17:27.999Z,66.05
2018-02-21T00:18:28.002Z,66.12
2018-02-21T00:19:28.011Z,66.21
2018-02-21T00:20:28.014Z,66.09
2018-02-21T00:21:28.041Z,66.12
2018-02-21T00:22:28.020Z,66.31
2018-02-21T00:23:28.032Z,66.31
2018-02-21T00:24:28.029Z,66.58
2018-02-21T00:25:28.046Z,66.58
2018-02-21T00:26:28.042Z,66.53
2018-02-21T00:27:28.047Z,66.7
2018-02-21T00:28:28.030Z,66.8
2018-02-21T00:29:28.201Z,66.67
2018-02-21T00:30:28.039Z,66.83
2018-02-21T00:31:28.195Z,66.67
2018-02-21T00:32:28.200Z,66.69
2018-02-21T00:33:28.204Z,67.17
2018-02-21T00:34:28.049Z,67.41
2018-02-21T00:35:28.217Z,67.32
2018-02-21T00:36:28.058Z,67.2
2018-02-21T00:37:28.193Z,67.14
2018-02-21T00:38:28.064Z,67.39
2018-02-21T00:39:28.070Z,67.38
2018-02-21T00:40:28.233Z,67.62
2018-02-21T00:41:28.060Z,67.72
2018-02-21T00:42:28.245Z,67.47
2018-02-21T00:43:28.068Z,67.5
2018-02-21T00:44:28.257Z,67.39
2018-02-21T00:45:28.078Z,67.38
2018-02-21T00:46:28.090Z,67.51
2018-02-21T00:47:28.094Z,67.85
2018-02-21T00:48:28.085Z,68.06
2018-02-21T00:49:28.102Z,67.82
2018-02-21T00:50:28.102Z,67.87
2018-02-21T00:51:28.102Z,68.03
2018-02-21T00:52:28.123Z,67.95
2018-02-21T00:53:28.434Z,67.95
2018-02-21T00:54:28.122Z,68.27
2018-02-21T00:55:28.127Z,68.19
2018-02-21T00:56:28.136Z,68.53
2018-02-21T00:57:28.139Z,68.64
2018-02-21T00:58:28.151Z,68.63
2018-02-21T00:59:28.128Z,68.63
2018-02-21T01:00:28.139Z,68.9
2018-02-21T01:01:28.139Z,68.76
2018-02-21T01:02:28.138Z,68.92
2018-02-21T01:03:28.605Z,68.72
2018-02-21T01:04:28.146Z,68.66
2018-02-21T01:05:28.155Z,68.64
2018-02-21T01:06:28.147Z,68.82
2018-02-21T01:07:28.153Z,68.87
2018-02-21T01:08:28.173Z,68.64
2018-02-21T01:09:28.153Z,68.72
2018-02-21T01:10:28.162Z,68.45
2018-02-21T01:11:28.161Z,69.04
2018-02-21T01:12:28.167Z,69.12
2018-02-21T01:13:28.186Z,69.21
2018-02-21T01:14:28.173Z,69.21
2018-02-21T01:15:28.182Z,69.24
2018-02-21T01:16:28.213Z,69.54
2018-02-21T01:17:28.198Z,69.36
2018-02-21T01:18:28.200Z,69.37
2018-02-21T01:19:28.214Z,69.47
2018-02-21T01:20:28.514Z,70.24
2018-02-21T01:21:28.211Z,70.36
2018-02-21T01:22:28.214Z,70.22
2018-02-21T01:23:28.223Z,70.34
2018-02-21T01:24:28.218Z,70.25
2018-02-21T01:25:28.242Z,70.2
2018-02-21T01:26:28.230Z,69.86
2018-02-21T01:27:28.220Z,69.85
2018-02-21T01:28:28.228Z,69.77
2018-02-21T01:29:28.234Z,70.24
2018-02-21T01:30:28.261Z,69.81
2018-02-21T01:31:28.240Z,70.09
2018-02-21T01:32:28.407Z,69.78
2018-02-21T01:33:28.265Z,70.06
2018-02-21T01:34:28.248Z,69.84
2018-02-21T01:35:28.259Z,70.11
2018-02-21T01:36:28.257Z,69.95
2018-02-21T01:37:28.260Z,70.4
2018-02-21T01:38:28.638Z,70.05
2018-02-21T01:39:28.268Z,69.83
2018-02-21T01:40:28.433Z,69.97
2018-02-21T01:41:28.437Z,70.13
2018-02-21T01:42:28.273Z,70.07
2018-02-21T01:43:28.292Z,69.63
2018-02-21T01:44:28.304Z,69.93
2018-02-21T01:45:28.280Z,69.74
2018-02-21T01:46:28.455Z,69.56
2018-02-21T01:47:28.446Z,70.09
2018-02-21T01:48:28.376Z,70.26
2018-02-21T01:49:28.448Z,70.48
2018-02-21T01:50:28.296Z,69.97
2018-02-21T01:51:28.300Z,70.28
2018-02-21T01:52:28.490Z,70.56
2018-02-21T01:53:28.485Z,70.64
2018-02-21T01:54:28.317Z,70.45
2018-02-21T01:55:28.308Z,70.44
2018-02-21T01:56:28.303Z,70.75
2018-02-21T01:57:28.323Z,70.86
2018-02-21T01:58:28.321Z,70.85
2018-02-21T01:59:28.308Z,70.67
2018-02-21T02:00:28.312Z,70.71
2018-02-21T02:01:28.316Z,70.53
2018-02-21T02:02:28.316Z,70.97
2018-02-21T02:03:28.346Z,70.66
2018-02-21T02:04:28.329Z,70.84
2018-02-21T02:05:28.328Z,70.43
2018-02-21T02:06:28.330Z,70.85
2018-02-21T02:07:28.330Z,70.62
2018-02-21T02:08:28.392Z,71.22
2018-02-21T02:09:28.340Z,70.79
2018-02-21T02:10:28.359Z,71.27
2018-02-21T02:11:28.358Z,70.98
2018-02-21T02:12:28.362Z,70.72
2018-02-21T02:13:28.509Z,71.42
2018-02-21T02:14:28.364Z,71.44
2018-02-21T02:15:28.389Z,71.44
2018-02-21T02:16:28.380Z,71.71
2018-02-21T02:17:28.407Z,71.58
2018-02-21T02:18:28.387Z,71.2
2018-02-21T02:19:28.395Z,71.47
2018-02-21T02:20:28.417Z,71.5
2018-02-21T02:21:28.394Z,71.35
2018-02-21T02:22:28.395Z,71.88
2018-02-21T02:23:28.393Z,71.99
2018-02-21T02:24:28.399Z,73
2018-02-21T02:25:28.430Z,73.15
2018-02-21T02:26:28.404Z,73.18
2018-02-21T02:27:28.411Z,72.96
2018-02-21T02:28:28.419Z,72.75
2018-02-21T02:29:28.416Z,72.76
2018-02-21T02:30:28.421Z,72.89
2018-02-21T02:31:28.439Z,72.96
2018-02-21T02:32:28.424Z,73.05
2018-02-21T02:33:28.426Z,72.96
2018-02-21T02:34:28.427Z,73.03
2018-02-21T02:35:28.432Z,73.19
2018-02-21T02:36:28.458Z,73.34
2018-02-21T02:37:28.434Z,73.31
2018-02-21T02:38:28.435Z,74.13
2018-02-21T02:39:28.443Z,74.29
2018-02-21T02:40:28.449Z,74.35
2018-02-21T02:41:28.453Z,74.1
2018-02-21T02:42:28.484Z,74.76
2018-02-21T02:43:28.462Z,74.96
2018-02-21T02:44:28.465Z,74.48
2018-02-21T02:45:28.479Z,74.58
2018-02-21T02:46:28.478Z,74.86
2018-02-21T02:47:28.486Z,74.75
2018-02-21T02:48:28.479Z,74.84
2018-02-21T02:49:28.482Z,74.58
2018-02-21T02:50:28.487Z,74.77
2018-02-21T02:51:28.491Z,74.74
2018-02-21T02:52:28.642Z,74.76
2018-02-21T02:53:28.643Z,75.03
2018-02-21T02:54:28.635Z,75.09
2018-02-21T02:55:28.638Z,74.63
2018-02-21T02:56:28.663Z,74.91
2018-02-21T02:57:28.650Z,75.04
2018-02-21T02:58:28.663Z,74.82
2018-02-21T02:59:28.672Z,74.69
2018-02-21T03:00:28.675Z,74.68
2018-02-21T03:01:28.701Z,74.33
2018-02-21T03:02:28.686Z,74.45
2018-02-21T03:03:28.693Z,74.41
2018-02-21T03:04:28.686Z,74.66
2018-02-21T03:05:28.675Z,74.63
2018-02-21T03:06:28.701Z,74.57
2018-02-21T03:07:28.687Z,74.65
2018-02-21T03:08:28.687Z,74.68
2018-02-21T03:09:28.693Z,74.46
2018-02-21T03:10:28.544Z,74.6
2018-02-21T03:11:28.551Z,74.66
2018-02-21T03:12:28.573Z,74.61
2018-02-21T03:13:28.564Z,74.45
2018-02-21T03:14:28.558Z,74.67
2018-02-21T03:15:28.573Z,74.52
2018-02-21T03:16:28.557Z,74.57
2018-02-21T03:17:28.586Z,74.89
2018-02-21T03:18:28.574Z,74.88
2018-02-21T03:19:28.580Z,74.82
2018-02-21T03:20:28.578Z,75.02
2018-02-21T03:21:28.577Z,74.64
2018-02-21T03:22:28.612Z,74.45
2018-02-21T03:23:28.584Z,74.75
2018-02-21T03:24:28.590Z,74.75
2018-02-21T03:25:28.589Z,74.84
2018-02-21T03:26:28.591Z,74.98
2018-02-21T03:27:28.634Z,74.95
2018-02-21T03:28:28.609Z,74.66
2018-02-21T03:29:28.609Z,74.37
2018-02-21T03:30:28.617Z,74.79
2018-02-21T03:31:28.628Z,75.05
2018-02-21T03:32:28.649Z,74.91
2018-02-21T03:33:28.629Z,74.99
2018-02-21T03:34:28.637Z,74.72
2018-02-21T03:35:28.627Z,74.99
2018-02-21T03:36:28.796Z,74.76
2018-02-21T03:37:28.658Z,74.75
2018-02-21T03:38:28.647Z,74.61
2018-02-21T03:39:28.809Z,74.69
2018-02-21T03:40:28.649Z,74.66
2018-02-21T03:41:28.652Z,74.58
2018-02-21T03:42:28.682Z,74.73
2018-02-21T03:43:28.674Z,74.5
2018-02-21T03:44:28.670Z,74.47
2018-02-21T03:45:28.672Z,74.69
2018-02-21T03:46:28.673Z,74.81
2018-02-21T03:47:28.712Z,75.04
2018-02-21T03:48:28.685Z,75.04
2018-02-21T03:49:28.693Z,74.77
2018-02-21T03:50:28.726Z,74.51
2018-02-21T03:51:28.703Z,74.97
2018-02-21T03:52:28.708Z,75
2018-02-21T03:53:28.712Z,75.31
2018-02-21T03:54:28.711Z,75.11
2018-02-21T03:55:28.731Z,75.25
2018-02-21T03:56:28.708Z,75.26
2018-02-21T03:57:28.714Z,75.42
2018-02-21T03:58:28.712Z,75.54
2018-02-21T03:59:28.900Z,75.45
2018-02-21T04:00:28.720Z,75.18
2018-02-21T04:01:28.732Z,75.33
2018-02-21T04:02:28.728Z,75.14
2018-02-21T04:03:28.897Z,75.34
2018-02-21T04:04:28.916Z,74.99
2018-02-21T04:05:28.907Z,75.18
2018-02-21T04:06:28.914Z,75.08
2018-02-21T04:07:28.923Z,75.24
2018-02-21T04:08:28.927Z,75.3
2018-02-21T04:09:28.939Z,75.25
2018-02-21T04:10:28.929Z,75.23
2018-02-21T04:11:28.925Z,75.45
2018-02-21T04:12:28.930Z,75.47
2018-02-21T04:13:28.936Z,75.43
2018-02-21T04:14:28.940Z,75.07
2018-02-21T04:15:28.786Z,74.83
2018-02-21T04:16:28.938Z,75.06
2018-02-21T04:17:28.938Z,74.58
2018-02-21T04:18:28.782Z,74.69
2018-02-21T04:19:28.969Z,74.66
2018-02-21T04:20:30.827Z,74.95
2018-02-21T04:21:28.806Z,74.99
2018-02-21T04:22:28.821Z,74.65
2018-02-21T04:23:28.818Z,74.78
2018-02-21T04:24:28.828Z,75.01
2018-02-21T04:25:29.021Z,75.3
2018-02-21T04:26:28.985Z,75.06
2018-02-21T04:27:28.978Z,75.31
2018-02-21T04:28:28.983Z,75.57
2018-02-21T04:29:28.821Z,75.19
2018-02-21T04:30:29.005Z,75.46
2018-02-21T04:31:28.823Z,75.52
2018-02-21T04:32:28.987Z,75.19
2018-02-21T04:33:28.996Z,75.44
2018-02-21T04:34:28.994Z,74.91
2018-02-21T04:35:29.044Z,75.29
2018-02-21T04:36:29.010Z,75.37
2018-02-21T04:37:29.019Z,75.58
2018-02-21T04:38:28.853Z,75.74
2018-02-21T04:39:28.856Z,76.04
2018-02-21T04:40:28.875Z,76.38
2018-02-21T04:41:28.864Z,76.17
2018-02-21T04:42:28.860Z,76.06
2018-02-21T04:43:28.866Z,76.5
2018-02-21T04:44:28.866Z,76.58
2018-02-21T04:45:28.890Z,76.51
2018-02-21T04:46:28.903Z,76.4
2018-02-21T04:47:28.883Z,76.45
2018-02-21T04:48:28.890Z,76.68
2018-02-21T04:49:28.890Z,76.37
2018-02-21T04:50:28.905Z,76.63
2018-02-21T04:51:28.884Z,76.5
2018-02-21T04:52:28.887Z,77.16
2018-02-21T04:53:28.890Z,77.55
2018-02-21T04:54:28.915Z,77.77
2018-02-21T04:55:28.930Z,77.92
2018-02-21T04:56:28.913Z,78.19
2018-02-21T04:57:28.901Z,78.18
2018-02-21T04:58:28.907Z,78.3
2018-02-21T04:59:28.907Z,78.46
2018-02-21T05:00:29.088Z,78.38
2018-02-21T05:01:28.913Z,78.57
2018-02-21T05:02:28.922Z,78.54
2018-02-21T05:03:28.928Z,78.64
2018-02-21T05:04:28.934Z,78.83
2018-02-21T05:05:28.960Z,78.54
2018-02-21T05:06:28.950Z,78.04
2018-02-21T05:07:28.948Z,78.26
2018-02-21T05:08:28.955Z,77.99
2018-02-21T05:09:29.115Z,77.85
2018-02-21T05:10:28.985Z,78.07
2018-02-21T05:11:28.964Z,77.97
2018-02-21T05:12:28.983Z,77.76
2018-02-21T05:13:28.983Z,77.39
2018-02-21T05:14:28.991Z,77.69
2018-02-21T05:15:29.021Z,77.41
2018-02-21T05:16:29.150Z,77.89
2018-02-21T05:17:29.148Z,77.59
2018-02-21T05:18:29.004Z,77.53
2018-02-21T05:19:29.161Z,77.46
2018-02-21T05:20:29.179Z,77.64
2018-02-21T05:21:29.168Z,77.7
2018-02-21T05:22:29.022Z,77.24
2018-02-21T05:23:29.175Z,77.65
2018-02-21T05:24:29.174Z,77.48
2018-02-21T05:25:29.210Z,77.18
2018-02-21T05:26:29.184Z,76.94
2018-02-21T05:27:29.194Z,76.96
2018-02-21T05:28:29.195Z,76.77
2018-02-21T05:29:29.046Z,76.41
2018-02-21T05:30:29.249Z,77.01
2018-02-21T05:31:29.202Z,76.89
2018-02-21T05:32:29.217Z,76.72
2018-02-21T05:33:29.048Z,76.93
2018-02-21T05:34:29.054Z,76.41
2018-02-21T05:35:29.359Z,76.4
2018-02-21T05:36:29.064Z,77.07
2018-02-21T05:37:29.085Z,77.09
2018-02-21T05:38:29.075Z,76.84
2018-02-21T05:39:29.071Z,77.06
2018-02-21T05:40:29.098Z,76.55
2018-02-21T05:41:29.082Z,77.03
2018-02-21T05:42:29.090Z,76.44
2018-02-21T05:43:29.096Z,76.69
2018-02-21T05:44:29.102Z,76.1
2018-02-21T05:45:29.131Z,76.58
2018-02-21T05:46:29.114Z,76.98
2018-02-21T05:47:29.108Z,77.14
2018-02-21T05:48:29.115Z,76.93
2018-02-21T05:49:29.120Z,77.17
2018-02-21T05:50:29.124Z,77.3
2018-02-21T05:51:29.124Z,76.9
2018-02-21T05:52:29.118Z,77.3
2018-02-21T05:53:29.125Z,77.42
2018-02-21T05:54:29.121Z,77.33
2018-02-21T05:55:29.500Z,77.42
2018-02-21T05:56:29.154Z,77.27
2018-02-21T05:57:29.149Z,77
2018-02-21T05:58:29.146Z,77.03
2018-02-21T05:59:29.153Z,77.62
2018-02-21T06:00:29.187Z,76.94
2018-02-21T06:01:29.158Z,76.97
2018-02-21T06:02:29.315Z,77.37
2018-02-21T06:03:29.155Z,77.52
2018-02-21T06:04:29.155Z,77.88
2018-02-21T06:05:29.157Z,77.44
2018-02-21T06:06:29.163Z,77.63
2018-02-21T06:07:29.209Z,77.44
2018-02-21T06:08:29.166Z,77.99
2018-02-21T06:09:29.174Z,78.07
2018-02-21T06:10:29.347Z,77.8
2018-02-21T06:11:29.181Z,77.81
2018-02-21T06:12:29.266Z,77.97
2018-02-21T06:13:29.186Z,77.92
2018-02-21T06:14:29.207Z,77.74
2018-02-21T06:15:29.612Z,77.68
2018-02-21T06:16:29.192Z,77.98
2018-02-21T06:17:29.200Z,77.84
2018-02-21T06:18:29.234Z,77.75
2018-02-21T06:19:29.207Z,77.84
2018-02-21T06:20:29.216Z,78.05
2018-02-21T06:21:29.207Z,78.29
2018-02-21T06:22:29.211Z,77.91
2018-02-21T06:23:29.240Z,77.62
2018-02-21T06:24:29.219Z,78.25
2018-02-21T06:25:29.226Z,78.16
2018-02-21T06:26:29.229Z,78.02
2018-02-21T06:27:29.387Z,77.83
2018-02-21T06:28:29.394Z,77.99
2018-02-21T06:29:29.397Z,78.17
2018-02-21T06:30:29.398Z,77.9
2018-02-21T06:31:29.402Z,77.54
2018-02-21T06:32:29.406Z,77.77
2018-02-21T06:33:29.410Z,78.05
2018-02-21T06:34:29.418Z,77.95
2018-02-21T06:35:29.432Z,77.46
2018-02-21T06:36:29.425Z,77.67
2018-02-21T06:37:29.427Z,77.74
2018-02-21T06:38:29.484Z,77.96
2018-02-21T06:39:29.438Z,77.45
2018-02-21T06:40:29.463Z,77.74
2018-02-21T06:41:29.448Z,77.45
2018-02-21T06:42:29.448Z,77.97
2018-02-21T06:43:29.447Z,77.96
2018-02-21T06:44:29.453Z,78.08
2018-02-21T06:45:29.293Z,78.49
2018-02-21T06:46:29.297Z,78.11
2018-02-21T06:47:29.352Z,77.67
2018-02-21T06:48:29.302Z,78.05
2018-02-21T06:49:29.467Z,78.27
2018-02-21T06:50:29.462Z,77.89
2018-02-21T06:51:29.469Z,77.95
2018-02-21T06:52:29.502Z,77.81
2018-02-21T06:53:29.488Z,77.65
2018-02-21T06:54:29.504Z,77.35
2018-02-21T06:55:29.495Z,78.28
2018-02-21T06:56:29.498Z,77.66
2018-02-21T06:57:29.525Z,78.07
2018-02-21T06:58:29.505Z,78.52
2018-02-21T06:59:29.352Z,78.14
2018-02-21T07:00:29.505Z,78.45
2018-02-21T07:01:29.505Z,77.96
2018-02-21T07:02:29.387Z,78.27
2018-02-21T07:03:29.357Z,78.78
2018-02-21T07:04:29.362Z,78.67
2018-02-21T07:05:29.368Z,78.14
2018-02-21T07:06:29.375Z,78.54
2018-02-21T07:07:29.404Z,78.01
2018-02-21T07:08:29.393Z,78.54
2018-02-21T07:09:29.385Z,78.51
2018-02-21T07:10:29.386Z,79.78
2018-02-21T07:11:29.529Z,79.92
2018-02-21T07:12:29.420Z,78.67
2018-02-21T07:13:29.393Z,78.61
2018-02-21T07:14:29.396Z,78.78
2018-02-21T07:15:29.505Z,78.9
2018-02-21T07:16:29.415Z,78.95
2018-02-21T07:17:29.431Z,79.15
2018-02-21T07:18:29.538Z,79.12
2018-02-21T07:19:29.427Z,78.64
2018-02-21T07:20:29.429Z,78.46
2018-02-21T07:21:29.453Z,78.66
2018-02-21T07:22:29.427Z,78.95
2018-02-21T07:23:29.446Z,79.02
2018-02-21T07:24:29.427Z,78.62
2018-02-21T07:25:29.432Z,78.5
2018-02-21T07:26:29.429Z,78.68
2018-02-21T07:27:29.433Z,78.72
2018-02-21T07:28:29.469Z,78.78
2018-02-21T07:29:29.440Z,78.91
2018-02-21T07:30:29.457Z,78.88
2018-02-21T07:31:29.442Z,79.12
2018-02-21T07:32:29.449Z,79.34
2018-02-21T07:33:29.453Z,79.46
2018-02-21T07:34:29.445Z,79.53
2018-02-21T07:35:29.464Z,79.13
2018-02-21T07:36:29.451Z,78.69
2018-02-21T07:37:29.453Z,78.9
2018-02-21T07:38:29.611Z,79.17
2018-02-21T07:39:29.637Z,78.84
2018-02-21T07:40:29.614Z,78.77
2018-02-21T07:41:29.612Z,78.82
2018-02-21T07:42:29.620Z,78.41
2018-02-21T07:43:29.626Z,78.88
2018-02-21T07:44:29.656Z,79.65
2018-02-21T07:45:29.624Z,79.53
2018-02-21T07:46:29.627Z,79.7
2018-02-21T07:47:29.636Z,79.71
2018-02-21T07:48:29.640Z,79.69
2018-02-21T07:49:29.679Z,79.26
2018-02-21T07:50:29.642Z,79.58
2018-02-21T07:51:29.693Z,79.4
2018-02-21T07:52:29.650Z,79.47
2018-02-21T07:53:29.649Z,79.58
2018-02-21T07:54:29.645Z,79.49
2018-02-21T07:55:29.658Z,79.29
2018-02-21T07:56:30.544Z,79.35
2018-02-21T07:57:29.649Z,78.69
2018-02-21T07:58:29.653Z,79.23
2018-02-21T07:59:29.770Z,79.29
2018-02-21T08:00:29.534Z,78.95
2018-02-21T08:01:29.659Z,79.02
2018-02-21T08:02:29.664Z,79.03
2018-02-21T08:03:29.674Z,79.08
2018-02-21T08:04:29.677Z,78.93
2018-02-21T08:05:29.698Z,78.92
2018-02-21T08:06:29.706Z,78.62
2018-02-21T08:07:29.684Z,78.4
2018-02-21T08:08:29.691Z,78.17
2018-02-21T08:09:29.696Z,78.53
2018-02-21T08:11:29.711Z,78.66
2018-02-21T08:12:29.718Z,78.82
2018-02-21T08:13:29.725Z,78.44
2018-02-21T08:14:29.572Z,77.94
2018-02-21T08:15:29.691Z,77.89
2018-02-21T08:16:29.570Z,77.83
2018-02-21T08:17:29.579Z,77.91
2018-02-21T08:18:29.573Z,77.48
2018-02-21T08:19:29.578Z,77.37
2018-02-21T08:20:29.889Z,77.27
2018-02-21T08:21:29.591Z,77.1
2018-02-21T08:22:29.593Z,77.13
2018-02-21T08:23:29.601Z,76.09
2018-02-21T08:24:29.607Z,75.75
2018-02-21T08:25:29.634Z,75.86
2018-02-21T08:26:29.628Z,76.08
2018-02-21T08:27:29.628Z,76.36
2018-02-21T08:28:29.782Z,76.33
2018-02-21T08:29:29.623Z,76.45
2018-02-21T08:30:29.652Z,76.33
2018-02-21T08:31:29.636Z,76.44
2018-02-21T08:32:29.638Z,76.54
2018-02-21T08:33:29.645Z,76.39
2018-02-21T08:34:29.638Z,76.16
2018-02-21T08:35:29.663Z,76.46
2018-02-21T08:36:29.647Z,76.06
2018-02-21T08:37:29.664Z,76.15
2018-02-21T08:38:29.657Z,75.72
2018-02-21T08:39:29.657Z,75.81
2018-02-21T08:40:29.677Z,75.6
2018-02-21T08:41:29.825Z,75.8
2018-02-21T08:42:29.681Z,75.16
2018-02-21T08:43:29.673Z,75.69
2018-02-21T08:44:29.682Z,75.38
2018-02-21T08:45:29.674Z,75.46
2018-02-21T08:46:29.683Z,74.82
2018-02-21T08:47:29.669Z,74.97
2018-02-21T08:48:29.676Z,74.67
2018-02-21T08:49:29.678Z,74.74
2018-02-21T08:50:29.838Z,74.24
2018-02-21T08:51:29.837Z,74.73
2018-02-21T08:52:29.867Z,74.78
2018-02-21T08:53:29.843Z,75.13
2018-02-21T08:54:29.842Z,74.71
2018-02-21T08:55:29.843Z,74.56
2018-02-21T08:56:29.846Z,74.18
2018-02-21T08:57:29.875Z,74.38
2018-02-21T08:58:29.850Z,74.25
2018-02-21T08:59:29.702Z,74.09
2018-02-21T09:00:29.860Z,74.03
2018-02-21T09:01:29.873Z,74.47
2018-02-21T09:02:29.869Z,74.08
2018-02-21T09:03:29.876Z,74
2018-02-21T09:04:29.879Z,73.67
2018-02-21T09:05:29.886Z,72.99
2018-02-21T09:06:29.916Z,73.43
2018-02-21T09:07:29.892Z,73.63
2018-02-21T09:08:29.901Z,73.2
2018-02-21T09:09:29.894Z,73.28
2018-02-21T09:10:29.914Z,73.3
2018-02-21T09:11:36.925Z,72.98
2018-02-21T09:12:29.913Z,73.11
2018-02-21T09:13:30.039Z,72.46
2018-02-21T09:14:29.925Z,72.37
2018-02-21T09:15:29.930Z,72.58
2018-02-21T09:16:29.970Z,73.18
2018-02-21T09:17:29.945Z,72.56
2018-02-21T09:18:29.965Z,72.33
2018-02-21T09:19:29.947Z,72.5
2018-02-21T09:20:29.793Z,72.9
2018-02-21T09:21:29.950Z,72.77
2018-02-21T09:22:29.795Z,72.55
2018-02-21T09:23:29.987Z,72.43
2018-02-21T09:24:29.964Z,72.55
2018-02-21T09:25:29.814Z,72.77
2018-02-21T09:26:29.811Z,72.49
2018-02-21T09:27:29.819Z,72.41
2018-02-21T09:28:29.839Z,72.46
2018-02-21T09:29:29.818Z,71.96
2018-02-21T09:30:29.826Z,72.26
2018-02-21T09:31:29.822Z,72.57
2018-02-21T09:32:29.839Z,72.79
2018-02-21T09:33:29.863Z,73.15
2018-02-21T09:34:29.838Z,73.33
2018-02-21T09:35:29.837Z,72.86
2018-02-21T09:36:29.844Z,73.06
2018-02-21T09:37:29.852Z,72.48
2018-02-21T09:38:29.900Z,72.99
2018-02-21T09:39:29.896Z,72.7
2018-02-21T09:40:29.858Z,71.75
2018-02-21T09:41:29.860Z,71.79
2018-02-21T09:42:29.858Z,71.4
2018-02-21T09:43:29.879Z,71.97
2018-02-21T09:44:29.859Z,71.71
2018-02-21T09:45:30.032Z,70.92
2018-02-21T09:46:29.879Z,70.72
2018-02-21T09:47:29.872Z,71.18
2018-02-21T09:48:30.061Z,70.84
2018-02-21T09:49:29.897Z,71.01
2018-02-21T09:50:29.877Z,70.78
2018-02-21T09:51:29.897Z,71
2018-02-21T09:52:29.882Z,71.37
2018-02-21T09:53:29.892Z,71.43
2018-02-21T09:54:29.925Z,71.25
2018-02-21T09:55:29.891Z,69.87
2018-02-21T09:56:29.917Z,69.53
2018-02-21T09:57:29.904Z,70.7
2018-02-21T09:58:29.919Z,71.38
2018-02-21T09:59:29.919Z,71.18
2018-02-21T10:00:29.901Z,69.48
2018-02-21T10:01:30.064Z,70.04
2018-02-21T10:02:30.063Z,68.62
2018-02-21T10:03:30.069Z,69.83
2018-02-21T10:04:30.074Z,69.91
2018-02-21T10:05:29.953Z,69.98
2018-02-21T10:06:30.126Z,69.42
2018-02-21T10:07:29.928Z,69.26
2018-02-21T10:08:29.930Z,69.3
2018-02-21T10:09:29.932Z,69.17
2018-02-21T10:10:29.937Z,69.1
2018-02-21T10:11:30.106Z,68.75
2018-02-21T10:12:30.104Z,68.93
2018-02-21T10:13:30.111Z,68.73
2018-02-21T10:14:29.982Z,68.61
2018-02-21T10:15:29.957Z,67.75
2018-02-21T10:16:29.965Z,67.19
2018-02-21T10:17:30.134Z,67.7
2018-02-21T10:18:30.125Z,67.72
2018-02-21T10:19:29.991Z,66.91
2018-02-21T10:20:29.981Z,66.82
2018-02-21T10:21:29.985Z,66.1
2018-02-21T10:22:29.985Z,66.39
2018-02-21T10:23:29.987Z,66.24
2018-02-21T10:24:30.009Z,66.4
2018-02-21T10:25:30.007Z,66.43
2018-02-21T10:26:30.008Z,66.34
2018-02-21T10:27:30.003Z,66.76
2018-02-21T10:28:30.007Z,65.93
2018-02-21T10:29:30.021Z,65.87
2018-02-21T10:30:30.043Z,65.29
2018-02-21T10:31:30.010Z,65.12
2018-02-21T10:32:30.013Z,65.22
2018-02-21T10:33:30.023Z,65.47
2018-02-21T10:34:30.033Z,65.3
2018-02-21T10:35:30.067Z,64.89
2018-02-21T10:36:30.040Z,64.37
2018-02-21T10:37:30.039Z,64.35
2018-02-21T10:38:30.047Z,64.64
2018-02-21T10:39:30.054Z,64.57
2018-02-21T10:40:30.079Z,64.84
2018-02-21T10:41:30.056Z,65.21
2018-02-21T10:42:30.058Z,64.82
2018-02-21T10:43:30.063Z,64.91
2018-02-21T10:44:30.070Z,63.99
2018-02-21T10:45:30.106Z,63.72
2018-02-21T10:46:30.078Z,63.32
2018-02-21T10:47:30.086Z,63.36
2018-02-21T10:48:30.100Z,63.91
2018-02-21T10:49:30.097Z,64.22
2018-02-21T10:50:30.111Z,63.18
2018-02-21T10:51:30.102Z,63.48
2018-02-21T10:52:30.101Z,64.24
2018-02-21T10:53:30.101Z,63.69
2018-02-21T10:54:30.106Z,63.03
2018-02-21T10:55:30.130Z,63.02
2018-02-21T10:56:30.123Z,62.83
2018-02-21T10:57:30.269Z,63.05
2018-02-21T10:58:30.272Z,62.96
2018-02-21T10:59:30.277Z,63.38
2018-02-21T11:00:30.138Z,63.62
2018-02-21T11:01:30.274Z,63.27
2018-02-21T11:02:30.115Z,63.51
2018-02-21T11:03:30.113Z,62.9
2018-02-21T11:04:30.120Z,61.96
2018-02-21T11:05:30.129Z,62.11
2018-02-21T11:06:30.133Z,61.57
2018-02-21T11:07:30.126Z,61.03
2018-02-21T11:08:30.137Z,61.69
2018-02-21T11:09:30.135Z,61.02
2018-02-21T11:10:30.453Z,61.38
2018-02-21T11:11:30.138Z,61.73
2018-02-21T11:12:30.144Z,61.59
2018-02-21T11:13:30.304Z,61.43
2018-02-21T11:14:30.314Z,61.02
2018-02-21T11:15:30.333Z,61.77
2018-02-21T11:16:30.308Z,61.72
2018-02-21T11:17:30.305Z,61.16
2018-02-21T11:18:30.317Z,60.58
2018-02-21T11:19:30.311Z,60.58
2018-02-21T11:20:30.351Z,60.35
2018-02-21T11:21:30.358Z,60.09
2018-02-21T11:22:30.164Z,60.85
2018-02-21T11:23:30.245Z,60.51
2018-02-21T11:24:30.328Z,60.34
2018-02-21T11:25:30.337Z,60.14
2018-02-21T11:26:30.351Z,60.02
2018-02-21T11:27:30.199Z,60.46
2018-02-21T11:28:30.187Z,60.5
2018-02-21T11:29:30.406Z,60.51
2018-02-21T11:30:30.205Z,60.31
2018-02-21T11:31:30.223Z,59.97
2018-02-21T11:32:30.359Z,59.82
2018-02-21T11:33:30.364Z,59.82
2018-02-21T11:34:30.372Z,59.35
2018-02-21T11:35:30.216Z,59.57
2018-02-21T11:36:30.247Z,59.44
2018-02-21T11:37:30.227Z,60.23
2018-02-21T11:38:30.234Z,60.66
2018-02-21T11:39:30.395Z,59.4
2018-02-21T11:40:30.403Z,60.16
2018-02-21T11:41:30.565Z,58.61
2018-02-21T11:42:30.243Z,58.89
2018-02-21T11:43:30.247Z,58.79
2018-02-21T11:44:30.419Z,59.69
2018-02-21T11:45:30.258Z,58.96
2018-02-21T11:46:30.278Z,58.26
2018-02-21T11:47:30.254Z,58.57
2018-02-21T11:48:30.256Z,59.33
2018-02-21T11:49:30.261Z,59.33
2018-02-21T11:50:30.271Z,58.77
2018-02-21T11:51:30.285Z,58.7
2018-02-21T11:52:30.274Z,58.29
2018-02-21T11:53:30.271Z,57.7
2018-02-21T11:54:30.274Z,58.01
2018-02-21T11:55:30.274Z,56.66
2018-02-21T11:56:30.290Z,57.51
2018-02-21T11:57:30.447Z,57.25
2018-02-21T11:58:30.276Z,56.48
2018-02-21T11:59:30.288Z,56.62
2018-02-21T12:00:30.442Z,55.83
2018-02-21T12:01:30.331Z,55.78
2018-02-21T12:02:30.452Z,56.27
2018-02-21T12:03:30.298Z,55.76
2018-02-21T12:04:30.300Z,55.89
2018-02-21T12:05:30.301Z,55.59
2018-02-21T12:06:30.331Z,56.19
2018-02-21T12:07:30.479Z,55.7
2018-02-21T12:08:30.319Z,55.56
2018-02-21T12:09:30.314Z,55.92
2018-02-21T12:10:30.486Z,55.9
2018-02-21T12:11:30.343Z,55.79
2018-02-21T12:12:30.325Z,56.24
2018-02-21T12:13:30.332Z,56.05
2018-02-21T12:14:30.339Z,56.16
2018-02-21T12:15:30.500Z,56.52
2018-02-21T12:16:30.366Z,56.78
2018-02-21T12:17:30.348Z,56.23
2018-02-21T12:18:30.347Z,56.91
2018-02-21T12:19:30.360Z,56.86
2018-02-21T12:20:30.507Z,56.09
2018-02-21T12:21:30.384Z,53.66
2018-02-21T12:22:30.364Z,54.41
2018-02-21T12:23:30.519Z,54.77
2018-02-21T12:24:30.374Z,55.63
2018-02-21T12:25:30.526Z,54.83
2018-02-21T12:26:30.557Z,55.47
2018-02-21T12:27:30.575Z,55.3
2018-02-21T12:28:30.538Z,54.94
2018-02-21T12:29:30.685Z,54.97
2018-02-21T12:30:30.552Z,54.84
2018-02-21T12:31:30.429Z,56.05
2018-02-21T12:32:30.590Z,55.04
2018-02-21T12:33:30.411Z,55.06
2018-02-21T12:34:30.418Z,55.4
2018-02-21T12:35:30.428Z,55.15
2018-02-21T12:36:30.576Z,55.11
2018-02-21T12:37:30.439Z,54.64
2018-02-21T12:38:30.412Z,54.14
2018-02-21T12:39:30.418Z,55.31
2018-02-21T12:40:30.418Z,54.58
2018-02-21T12:41:30.420Z,53.88
2018-02-21T12:42:30.448Z,54.24
2018-02-21T12:43:30.601Z,54.77
2018-02-21T12:44:30.422Z,54.16
2018-02-21T12:45:30.428Z,54.31
2018-02-21T12:46:30.427Z,54.62
2018-02-21T12:47:30.447Z,53.84
2018-02-21T12:48:30.434Z,54.35
2018-02-21T12:49:31.503Z,53.79
2018-02-21T12:50:30.433Z,53.71
2018-02-21T12:51:30.437Z,53.41
2018-02-21T12:52:30.468Z,53.68
2018-02-21T12:53:30.448Z,53.58
2018-02-21T12:54:30.454Z,53.49
2018-02-21T12:55:30.498Z,53.5
2018-02-21T12:56:30.456Z,53.72